Time;durP1;ratioP1;P1;durP2;ratioP2;P2;SDS_P1;SDS_P2;PMS_P1;PMS_P2;Temp;Humidity;BMP_temperature;BMP_pressure;BME280_temperature;BME280_humidity;BME280_pressure;Samples;Min_cycle;Max_cycle;Signal;HPM_P1;HPM_P2
2022/04/19 00:01:27;;;;;;;3.80;2.22;;;;;;;11.50;35.77;101241.16;5028479;28;100349;-69
2022/04/19 00:03:54;;;;;;;4.10;1.80;;;;;;;11.33;36.46;101230.25;5031474;28;98360;-70
2022/04/19 00:06:24;;;;;;;3.55;1.55;;;;;;;11.39;36.13;101235.34;5023621;27;96883;-69
2022/04/19 00:08:55;;;;;;;2.42;1.73;;;;;;;11.24;37.04;101222.56;5032767;28;96779;-69
2022/04/19 00:11:22;;;;;;;2.80;1.65;;;;;;;10.62;37.45;101222.66;5028040;28;98317;-71
2022/04/19 00:13:49;;;;;;;2.65;1.52;;;;;;;11.43;36.53;101214.94;5027880;28;101296;-70
2022/04/19 00:16:16;;;;;;;2.90;1.77;;;;;;;11.15;36.85;101217.59;5027313;27;96708;-69
2022/04/19 00:18:44;;;;;;;4.60;1.95;;;;;;;10.93;37.47;101206.78;5028238;28;98636;-70
2022/04/19 00:21:14;;;;;;;4.90;1.67;;;;;;;10.84;37.83;101204.38;5025728;28;98347;-70
2022/04/19 00:23:43;;;;;;;5.40;2.00;;;;;;;11.04;37.48;101214.38;5026792;28;98074;-69
2022/04/19 00:26:10;;;;;;;4.18;1.55;;;;;;;10.97;37.47;101208.41;5024883;28;97402;-69
2022/04/19 00:28:37;;;;;;;3.17;1.55;;;;;;;10.67;37.96;101204.88;5026207;28;96937;-70
2022/04/19 00:31:05;;;;;;;2.72;1.60;;;;;;;10.69;37.97;101213.66;5021640;28;97820;-70
2022/04/19 00:33:32;;;;;;;4.75;2.22;;;;;;;10.74;38.17;101213.50;5026850;28;101984;-69
2022/04/19 00:36:05;;;;;;;3.20;1.70;;;;;;;10.65;38.10;101203.19;5027638;28;96836;-70
2022/04/19 00:38:32;;;;;;;4.45;1.80;;;;;;;11.09;37.77;101207.19;5027124;28;96937;-69
2022/04/19 00:40:59;;;;;;;4.13;1.77;;;;;;;10.08;39.32;101203.84;5031493;28;101077;-69
2022/04/19 00:43:26;;;;;;;3.50;1.77;;;;;;;10.70;38.51;101199.50;5028021;28;100033;-69
2022/04/19 00:45:55;;;;;;;5.88;1.98;;;;;;;11.25;37.45;101205.78;5027742;27;97095;-70
2022/04/19 00:48:22;;;;;;;2.22;1.58;;;;;;;11.52;36.71;101191.69;5026319;27;96948;-70
2022/04/19 00:50:50;;;;;;;2.40;1.50;;;;;;;10.70;38.11;101209.22;5025008;27;97592;-70
2022/04/19 00:53:24;;;;;;;4.53;1.80;;;;;;;10.65;38.42;101201.41;5027233;27;98157;-69
2022/04/19 00:55:51;;;;;;;4.15;1.95;;;;;;;10.32;38.79;101203.22;5030805;27;96769;-70
2022/04/19 00:58:18;;;;;;;4.65;1.80;;;;;;;10.71;38.64;101195.94;5023795;27;99187;-70
2022/04/19 01:00:45;;;;;;;2.55;1.90;;;;;;;10.89;38.12;101193.69;5024162;27;101632;-70
2022/04/19 01:03:12;;;;;;;2.15;1.60;;;;;;;10.09;39.49;101192.38;5029828;27;101075;-70
2022/04/19 01:05:38;;;;;;;4.60;1.92;;;;;;;9.99;39.90;101194.38;5029556;27;96697;-69
2022/04/19 01:08:07;;;;;;;2.78;1.60;;;;;;;9.53;41.00;101201.72;5027643;28;97034;-70
2022/04/19 01:10:35;;;;;;;3.00;1.80;;;;;;;10.04;40.09;101188.13;5030161;27;99600;-69
2022/04/19 01:13:19;;;;;;;5.85;2.10;;;;;;;9.92;40.29;101191.94;5022588;28;101790;-68
2022/04/19 01:15:51;;;;;;;2.60;1.92;;;;;;;10.01;40.14;101186.44;5030156;27;97339;-70
2022/04/19 01:18:22;;;;;;;3.22;1.85;;;;;;;10.61;39.16;101194.50;5028096;27;96793;-69
2022/04/19 01:20:57;;;;;;;2.50;1.45;;;;;;;10.14;39.96;101189.63;5026055;27;100437;-70
2022/04/19 01:23:26;;;;;;;4.47;1.70;;;;;;;10.31;39.34;101192.69;5027389;27;101113;-69
2022/04/19 01:25:52;;;;;;;5.40;1.75;;;;;;;10.35;39.80;101191.72;5024744;28;96723;-69
2022/04/19 01:28:20;;;;;;;2.78;1.88;;;;;;;10.27;40.04;101188.41;5027077;28;97352;-70
2022/04/19 01:30:56;;;;;;;3.85;1.70;;;;;;;10.60;39.54;101189.25;5030238;28;99476;-69
2022/04/19 01:33:25;;;;;;;;;;;;;;;10.10;40.00;101190.63;5029909;28;99124;-69
2022/04/19 01:35:53;;;;;;;5.57;1.90;;;;;;;10.43;39.52;101179.16;5022731;28;96792;-69
2022/04/19 01:38:21;;;;;;;3.53;1.63;;;;;;;10.73;39.25;101180.94;5025642;27;97520;-71
2022/04/19 01:40:52;;;;;;;5.78;1.80;;;;;;;10.43;39.73;101184.47;5027559;27;99223;-71
2022/04/19 01:43:35;;;;;;;3.25;1.50;;;;;;;9.56;41.72;101183.19;5030416;28;101632;-69
2022/04/19 01:46:02;;;;;;;3.53;1.70;;;;;;;9.94;41.33;101177.81;5027312;28;97384;-70
2022/04/19 01:48:33;;;;;;;5.63;2.00;;;;;;;9.85;41.27;101175.41;5025870;28;96744;-69
2022/04/19 01:51:09;;;;;;;3.28;2.08;;;;;;;9.72;41.36;101184.53;5022849;28;98513;-70
2022/04/19 01:53:40;;;;;;;3.17;1.70;;;;;;;10.03;41.21;101173.19;5030659;28;98553;-70
2022/04/19 01:56:10;;;;;;;4.05;1.98;;;;;;;10.04;41.16;101172.31;5030023;27;96842;-69
2022/04/19 01:58:40;;;;;;;2.78;1.80;;;;;;;9.99;40.73;101175.03;5017981;28;97636;-70
2022/04/19 02:01:10;;;;;;;4.28;1.95;;;;;;;10.20;40.95;101163.06;5024179;28;98408;-68
2022/04/19 02:03:39;;;;;;;6.30;2.08;;;;;;;9.64;42.03;101172.44;5019724;27;97540;-70
2022/04/19 02:06:08;;;;;;;4.25;2.38;;;;;;;10.31;40.69;101163.63;5028584;27;96850;-71
2022/04/19 02:08:35;;;;;;;2.55;1.70;;;;;;;10.61;40.59;101169.84;5030287;28;96892;-70
2022/04/19 02:11:01;;;;;;;3.80;2.20;;;;;;;10.48;39.60;101177.25;5030158;28;98932;-70
2022/04/19 02:13:30;;;;;;;5.82;2.20;;;;;;;10.10;40.73;101169.50;5023565;28;98864;-70
2022/04/19 02:15:58;;;;;;;3.28;1.80;;;;;;;10.50;40.32;101158.72;5028284;27;96830;-70
2022/04/19 02:18:24;;;;;;;5.53;2.30;;;;;;;10.74;39.29;101163.28;5023578;28;96970;-71
2022/04/19 02:20:51;;;;;;;2.88;1.83;;;;;;;10.45;40.06;101155.31;5023670;27;99017;-69
2022/04/19 02:23:17;;;;;;;2.42;2.00;;;;;;;10.22;40.09;101145.41;5021378;27;98755;-72
2022/04/19 02:25:45;;;;;;;5.47;2.22;;;;;;;10.30;40.15;101159.28;5020087;28;96798;-70
2022/04/19 02:28:12;;;;;;;4.07;2.00;;;;;;;10.96;39.25;101159.06;5028142;27;97646;-69
2022/04/19 02:30:40;;;;;;;5.53;2.10;;;;;;;10.85;38.89;101160.31;5023586;28;98858;-69
2022/04/19 02:33:06;;;;;;;6.50;2.00;;;;;;;10.20;39.55;101155.16;5022915;27;98063;-70
2022/04/19 02:35:33;;;;;;;3.38;2.00;;;;;;;10.03;40.49;101160.00;5030331;28;96891;-70
2022/04/19 02:38:00;;;;;;;8.65;2.55;;;;;;;9.72;41.11;101163.41;5030823;28;96813;-69
2022/04/19 02:40:27;;;;;;;4.82;2.20;;;;;;;10.24;40.21;101157.66;5022838;28;98860;-69
2022/04/19 02:42:55;;;;;;;4.78;2.03;;;;;;;9.98;40.75;101166.25;5024821;27;98702;-69
2022/04/19 02:45:22;;;;;;;3.70;1.85;;;;;;;10.38;40.11;101159.91;5030572;27;96761;-69
2022/04/19 02:48:01;;;;;;;6.28;2.53;;;;;;;10.46;40.23;101163.22;5022408;28;96892;-69
2022/04/19 02:50:28;;;;;;;5.47;2.00;;;;;;;9.86;41.07;101158.66;5030117;28;98973;-68
2022/04/19 02:52:54;;;;;;;8.45;2.40;;;;;;;9.63;41.19;101168.94;5027612;27;98072;-69
2022/04/19 02:55:21;;;;;;;4.43;2.25;;;;;;;9.71;41.42;101168.75;5021859;28;96783;-68
2022/04/19 02:57:47;;;;;;;4.32;1.90;;;;;;;9.51;41.61;101170.13;5026040;28;98662;-69
2022/04/19 03:00:15;;;;;;;4.07;1.95;;;;;;;9.54;42.02;101163.88;5024352;28;99037;-70
2022/04/19 03:02:41;;;;;;;3.58;1.98;;;;;;;10.02;40.56;101153.84;5024321;27;99864;-68
2022/04/19 03:05:09;;;;;;;4.93;2.45;;;;;;;9.33;41.94;101159.13;5023669;28;98205;-69
2022/04/19 03:07:35;;;;;;;5.53;2.00;;;;;;;9.63;41.72;101158.38;5022387;28;96769;-69
2022/04/19 03:10:02;;;;;;;5.32;2.47;;;;;;;9.48;42.07;101164.03;5028088;27;97950;-70
2022/04/19 03:12:28;;;;;;;4.75;2.35;;;;;;;9.31;42.30;101159.19;5028016;28;98893;-69
2022/04/19 03:14:55;;;;;;;3.92;1.90;;;;;;;9.89;41.29;101150.66;5034297;28;97054;-70
2022/04/19 03:17:21;;;;;;;4.38;1.98;;;;;;;9.32;41.77;101146.88;5028998;27;96887;-69
2022/04/19 03:19:48;;;;;;;6.72;2.00;;;;;;;8.97;42.63;101156.44;5034465;28;97970;-70
2022/04/19 03:22:15;;;;;;;3.35;2.17;;;;;;;9.28;42.58;101138.13;5027213;27;98876;-69
2022/04/19 03:27:44;;;;;;;6.75;2.17;;;;;;;9.78;41.20;101141.31;5032727;27;98796;-70
2022/04/19 03:30:14;;;;;;;2.72;1.90;;;;;;;9.55;41.80;101144.50;5039412;27;97662;-70
2022/04/19 03:32:42;;;;;;;6.28;2.10;;;;;;;9.65;41.70;101146.00;5029892;27;99099;-69
2022/04/19 03:35:09;;;;;;;3.88;1.77;;;;;;;9.77;41.42;101144.84;5027582;27;97404;-70
2022/04/19 03:37:36;;;;;;;5.20;2.33;;;;;;;9.15;42.29;101150.75;5028591;27;96874;-69
2022/04/19 03:40:03;;;;;;;3.22;2.03;;;;;;;8.83;43.04;101155.88;5023165;27;97762;-70
2022/04/19 03:42:30;;;;;;;4.97;2.00;;;;;;;8.51;44.04;101147.78;5027863;27;97668;-69
2022/04/19 03:44:56;;;;;;;5.57;2.25;;;;;;;8.60;43.64;101145.81;5036938;27;97274;-69
2022/04/19 03:47:23;;;;;;;6.45;2.10;;;;;;;8.80;43.21;101148.91;5024255;27;96803;-69
2022/04/19 03:49:49;;;;;;;6.57;2.22;;;;;;;9.10;42.56;101151.75;5039181;27;98123;-70
2022/04/19 03:52:16;;;;;;;6.18;2.00;;;;;;;8.85;43.07;101156.72;5028471;27;97735;-68
2022/04/19 03:54:43;;;;;;;4.50;2.15;;;;;;;9.60;41.55;101163.72;5026501;27;96688;-69
2022/04/19 03:57:11;;;;;;;2.97;2.13;;;;;;;9.20;42.56;101156.78;5023560;28;97058;-69
2022/04/19 03:59:38;;;;;;;4.68;2.20;;;;;;;9.38;41.97;101163.41;5033526;28;99544;-70
2022/04/19 04:02:05;;;;;;;5.72;2.10;;;;;;;9.60;41.62;101153.16;5029780;28;101385;-69
2022/04/19 04:04:34;;;;;;;6.53;2.25;;;;;;;8.76;42.81;101152.50;5025642;28;96792;-69
2022/04/19 04:07:00;;;;;;;5.70;2.80;;;;;;;8.97;43.10;101161.72;5032431;28;96753;-69
2022/04/19 04:09:32;;;;;;;4.97;2.35;;;;;;;9.14;42.55;101148.13;5027851;28;99376;-70
2022/04/19 04:12:01;;;;;;;4.75;2.38;;;;;;;8.99;42.60;101148.50;5030287;27;99192;-70
2022/04/19 04:14:27;;;;;;;6.75;3.78;;;;;;;8.75;43.47;101149.91;5027501;28;96701;-69
2022/04/19 04:16:54;;;;;;;6.10;2.70;;;;;;;8.51;44.28;101160.97;5031649;28;97149;-69
2022/04/19 04:19:20;;;;;;;3.28;2.25;;;;;;;8.40;44.74;101158.56;5022911;27;99268;-69
2022/04/19 04:21:47;;;;;;;4.30;2.28;;;;;;;8.76;43.77;101151.63;5022005;27;98264;-70
2022/04/19 04:24:13;;;;;;;5.15;2.40;;;;;;;8.53;44.16;101153.91;5022471;28;97169;-70
2022/04/19 04:26:40;;;;;;;4.55;2.63;;;;;;;8.06;45.40;101147.78;5023366;28;97063;-70
2022/04/19 04:29:07;;;;;;;5.30;2.30;;;;;;;8.20;45.31;101150.16;5027676;28;99569;-69
2022/04/19 04:31:34;;;;;;;6.10;2.47;;;;;;;8.40;44.57;101158.56;5030824;28;98984;-70
2022/04/19 04:34:00;;;;;;;5.35;2.70;;;;;;;8.58;44.26;101163.44;5026821;28;96726;-70
2022/04/19 04:36:27;;;;;;;5.45;2.50;;;;;;;8.87;44.14;101159.31;5031802;28;96891;-70
2022/04/19 04:38:53;;;;;;;6.60;2.60;;;;;;;8.79;43.61;101162.97;5022732;28;99012;-69
2022/04/19 04:41:20;;;;;;;6.13;2.53;;;;;;;8.72;44.28;101165.78;5030434;28;97649;-69
2022/04/19 04:43:46;;;;;;;8.73;3.03;;;;;;;9.45;43.26;101166.75;5027096;28;96871;-70
2022/04/19 04:51:42;;;;;;;5.38;2.50;;;;;;;8.90;43.81;101165.38;5020020;28;97118;-69
2022/04/19 04:54:08;;;;;;;4.85;2.40;;;;;;;8.74;44.50;101171.88;5028648;28;96745;-69
2022/04/19 04:56:35;;;;;;;6.07;2.60;;;;;;;8.61;44.96;101167.75;5024341;28;96804;-70
2022/04/19 04:59:01;;;;;;;6.85;2.70;;;;;;;9.40;43.28;101163.34;5029032;28;99556;-69
2022/04/19 05:01:29;;;;;;;6.28;3.13;;;;;;;9.05;43.97;101161.56;5023969;27;98629;-69
2022/04/19 05:03:55;;;;;;;9.38;3.13;;;;;;;9.44;42.96;101159.75;5027987;28;97241;-70
2022/04/19 05:06:22;;;;;;;3.30;2.47;;;;;;;10.31;41.50;101161.00;5026472;27;96898;-69
2022/04/19 05:08:48;;;;;;;8.88;3.35;;;;;;;10.07;41.92;101169.56;5027399;27;98908;-69
2022/04/19 05:11:15;;;;;;;6.57;2.95;;;;;;;9.52;43.33;101170.94;5026752;28;101713;-70
2022/04/19 05:13:41;;;;;;;4.90;2.50;;;;;;;9.52;43.18;101163.03;5027354;28;96603;-70
2022/04/19 05:16:08;;;;;;;7.20;3.20;;;;;;;9.62;43.27;101168.97;5021160;27;96876;-69
2022/04/19 05:18:35;;;;;;;8.90;3.63;;;;;;;9.78;42.97;101157.97;5034717;27;98970;-69
2022/04/19 05:21:02;;;;;;;6.28;2.80;;;;;;;9.78;43.09;101151.88;5025271;27;99137;-69
2022/04/19 05:23:28;;;;;;;6.70;3.63;;;;;;;9.35;43.82;101163.47;5028450;27;98767;-70
2022/04/19 05:25:54;;;;;;;7.13;3.78;;;;;;;9.66;43.42;101160.94;5026572;27;96938;-70
2022/04/19 05:28:21;;;;;;;6.47;3.78;;;;;;;10.43;41.62;101162.44;5019997;27;99676;-70
2022/04/19 05:30:47;;;;;;;7.95;3.60;;;;;;;10.92;41.04;101161.88;5020342;27;98029;-69
2022/04/19 05:33:14;;;;;;;8.68;3.53;;;;;;;10.98;40.82;101177.53;5028389;27;97443;-70
2022/04/19 05:35:41;;;;;;;8.70;3.47;;;;;;;10.70;41.29;101170.44;5031463;27;96941;-69
2022/04/19 05:38:08;;;;;;;5.00;3.10;;;;;;;10.62;41.42;101185.66;5028596;27;99212;-70
2022/04/19 05:40:34;;;;;;;6.75;3.35;;;;;;;10.74;41.33;101174.72;5030608;27;98805;-70
2022/04/19 05:43:01;;;;;;;9.07;3.40;;;;;;;11.15;40.43;101178.78;5027631;27;96842;-69
2022/04/19 05:45:27;;;;;;;8.90;3.92;;;;;;;11.00;40.39;101183.66;5020018;27;97811;-72
2022/04/19 05:47:54;;;;;;;7.75;3.63;;;;;;;11.16;39.82;101177.84;5024462;27;99338;-69
2022/04/19 05:50:21;;;;;;;10.23;3.65;;;;;;;11.15;39.94;101194.66;5030156;27;102623;-70
2022/04/19 05:52:48;;;;;;;5.60;3.65;;;;;;;11.52;39.34;101177.59;5027261;27;97174;-69
2022/04/19 05:55:15;;;;;;;7.25;4.32;;;;;;;11.80;38.89;101185.53;5024721;27;97818;-69
2022/04/19 05:57:41;;;;;;;8.65;3.30;;;;;;;10.78;40.20;101191.34;5024289;27;97741;-69
2022/04/19 06:00:09;;;;;;;11.32;4.18;;;;;;;10.18;42.04;101192.16;5021426;27;99192;-69
2022/04/19 06:05:20;;;;;;;7.45;3.30;;;;;;;10.05;41.88;101193.34;5029956;28;97547;-70
2022/04/19 06:07:52;;;;;;;8.55;3.60;;;;;;;10.26;41.78;101186.66;5017890;28;99179;-70
2022/04/19 06:10:19;;;;;;;9.52;3.58;;;;;;;10.69;41.12;101192.50;5028082;28;99482;-69
2022/04/19 06:12:45;;;;;;;10.45;3.30;;;;;;;10.94;40.37;101186.50;5026404;28;96737;-69
2022/04/19 06:15:12;;;;;;;9.00;3.85;;;;;;;11.31;39.88;101191.50;5026511;27;97029;-69
2022/04/19 06:17:41;;;;;;;5.60;3.47;;;;;;;12.01;38.09;101181.31;5021733;28;97720;-69
2022/04/19 06:20:08;;;;;;;5.13;3.22;;;;;;;12.10;38.12;101184.47;5025306;27;98826;-69
2022/04/19 06:22:35;;;;;;;6.20;3.38;;;;;;;12.68;36.73;101190.34;5027631;27;97107;-69
2022/04/19 06:25:03;;;;;;;8.15;3.30;;;;;;;12.83;36.41;101194.19;5023399;27;97495;-69
2022/04/19 06:27:30;;;;;;;5.30;3.50;;;;;;;12.97;35.90;101189.25;5025477;27;101786;-70
2022/04/19 06:29:57;;;;;;;11.50;3.72;;;;;;;13.08;35.45;101187.03;5021411;28;98952;-69
2022/04/19 06:32:24;;;;;;;5.75;3.58;;;;;;;12.42;36.85;101185.13;5023620;27;97994;-69
2022/04/19 06:34:53;;;;;;;6.95;3.45;;;;;;;13.08;35.82;101187.91;5023303;27;98905;-70
2022/04/19 06:37:20;;;;;;;5.78;3.60;;;;;;;13.55;34.62;101187.84;5024413;27;99174;-69
2022/04/19 06:39:47;;;;;;;14.40;3.67;;;;;;;12.65;36.12;101183.38;5024708;28;101758;-69
2022/04/19 06:42:14;;;;;;;7.35;3.50;;;;;;;12.68;35.49;101183.25;5024809;27;99022;-69
2022/04/19 06:44:41;;;;;;;6.50;3.83;;;;;;;13.12;35.18;101181.59;5027270;27;97652;-69
2022/04/19 06:47:07;;;;;;;6.35;3.80;;;;;;;13.17;34.76;101189.38;5024018;27;101655;-70
2022/04/19 06:49:34;;;;;;;9.75;4.13;;;;;;;13.01;35.07;101186.41;5029393;27;100045;-71
2022/04/19 06:52:05;;;;;;;12.32;4.07;;;;;;;12.75;35.70;101191.84;5022843;27;96949;-70
2022/04/19 06:54:32;;;;;;;9.18;4.13;;;;;;;12.83;35.80;101192.41;5030105;27;96854;-70
2022/04/19 06:56:58;;;;;;;10.38;3.80;;;;;;;13.19;35.07;101194.63;5038452;27;98985;-70
2022/04/19 06:59:26;;;;;;;7.32;3.95;;;;;;;13.65;33.62;101193.66;5029441;27;101085;-70
2022/04/19 07:01:52;;;;;;;7.45;3.97;;;;;;;13.75;33.24;101195.84;5025499;27;98216;-70
2022/04/19 07:04:19;;;;;;;12.77;4.55;;;;;;;13.43;33.98;101194.53;5028061;27;98865;-70
2022/04/19 07:06:45;;;;;;;11.70;6.20;;;;;;;12.47;35.19;101204.41;5025616;27;99241;-70
2022/04/19 07:09:12;;;;;;;15.38;4.95;;;;;;;13.82;33.49;101197.34;5030317;27;100715;-70
2022/04/19 07:11:38;;;;;;;7.75;4.55;;;;;;;14.65;32.08;101197.28;5026292;27;97256;-70
2022/04/19 07:14:05;;;;;;;11.00;4.90;;;;;;;16.27;28.55;101200.03;5029359;27;97519;-70
2022/04/19 07:16:33;;;;;;;9.35;4.78;;;;;;;14.12;31.44;101199.59;5028197;27;101531;-70
2022/04/19 07:19:00;;;;;;;11.40;4.18;;;;;;;13.72;31.48;101200.44;5025360;27;98534;-70
2022/04/19 07:26:55;;;;;;;7.43;3.78;;;;;;;14.67;30.36;101204.28;5026495;27;97624;-70
2022/04/19 07:29:22;;;;;;;9.73;4.22;;;;;;;14.30;30.69;101199.69;5024845;27;99315;-70
2022/04/19 07:31:51;;;;;;;9.70;3.63;;;;;;;15.31;29.35;101192.41;5029386;27;96918;-71
2022/04/19 07:34:17;;;;;;;9.48;3.97;;;;;;;15.98;28.22;101194.47;5033222;28;97389;-71
2022/04/19 07:36:45;;;;;;;9.65;4.40;;;;;;;16.12;27.51;101192.81;5028754;27;99298;-70
2022/04/19 07:39:13;;;;;;;9.18;3.90;;;;;;;16.40;26.75;101192.25;5027350;27;99013;-70
2022/04/19 07:41:43;;;;;;;8.00;3.53;;;;;;;15.65;27.77;101189.00;5025966;27;98797;-69
2022/04/19 07:44:09;;;;;;;10.43;3.92;;;;;;;15.52;27.57;101194.94;5025318;27;99180;-69
2022/04/19 07:46:36;;;;;;;6.43;3.30;;;;;;;14.27;29.10;101188.31;5024112;27;99061;-68
2022/04/19 07:49:04;;;;;;;8.68;3.28;;;;;;;16.16;26.93;101186.38;5030917;27;99072;-71
2022/04/19 07:51:31;;;;;;;9.20;3.50;;;;;;;16.76;25.43;101186.78;5025530;27;96818;-70
2022/04/19 07:53:58;;;;;;;6.20;4.10;;;;;;;17.37;24.41;101188.75;5023866;27;97487;-70
2022/04/19 07:56:24;;;;;;;7.82;3.00;;;;;;;17.20;24.49;101195.00;5024679;27;99266;-69
2022/04/19 07:58:51;;;;;;;4.55;2.63;;;;;;;15.38;26.48;101202.69;5028118;27;98726;-68
2022/04/19 08:01:18;;;;;;;3.88;2.72;;;;;;;14.65;26.82;101195.50;5024919;27;96907;-70
2022/04/19 08:03:45;;;;;;;5.47;2.10;;;;;;;14.37;27.19;101189.66;5011628;27;98190;-69
2022/04/19 08:06:13;;;;;;;6.47;2.13;;;;;;;14.89;27.08;101188.19;5024584;27;98556;-69
2022/04/19 08:08:42;;;;;;;6.38;2.58;;;;;;;14.90;27.09;101183.75;5022634;27;99029;-69
2022/04/19 08:11:08;;;;;;;7.10;2.30;;;;;;;16.02;26.21;101188.88;5023725;27;98770;-68
2022/04/19 08:13:35;;;;;;;4.45;2.47;;;;;;;15.56;26.32;101184.16;5028133;27;97757;-70
2022/04/19 08:16:01;;;;;;;6.13;2.28;;;;;;;15.02;27.07;101188.50;5026051;27;98996;-69
2022/04/19 08:18:28;;;;;;;3.38;1.98;;;;;;;15.80;26.30;101181.13;5023654;27;99337;-69
2022/04/19 08:20:55;;;;;;;3.67;1.80;;;;;;;15.40;27.34;101189.31;5023655;27;97373;-69
2022/04/19 08:23:22;;;;;;;5.53;1.80;;;;;;;14.94;27.21;101177.34;5023210;27;98082;-70
2022/04/19 08:25:49;;;;;;;5.47;2.03;;;;;;;14.59;28.02;101174.50;5027428;27;99058;-70
2022/04/19 08:28:15;;;;;;;4.13;2.00;;;;;;;15.61;27.02;101176.78;5023300;27;97468;-69
2022/04/19 08:30:42;;;;;;;4.55;2.05;;;;;;;15.94;26.50;101172.44;5023161;27;97456;-70
2022/04/19 08:33:08;;;;;;;5.78;2.22;;;;;;;15.76;26.53;101171.53;5023898;27;98591;-70
2022/04/19 08:35:35;;;;;;;5.55;2.13;;;;;;;16.07;27.07;101168.22;5023101;27;99493;-70
2022/04/19 08:38:01;;;;;;;4.50;2.50;;;;;;;15.78;26.85;101180.34;5022485;27;101336;-70
2022/04/19 08:40:32;;;;;;;4.30;2.03;;;;;;;15.81;26.67;101171.34;5022538;27;98799;-71
2022/04/19 08:42:59;;;;;;;3.78;2.58;;;;;;;15.85;26.48;101164.91;5020843;27;96904;-70
2022/04/19 08:45:26;;;;;;;6.07;2.38;;;;;;;16.07;26.36;101160.22;5024726;27;99459;-70
2022/04/19 08:47:53;;;;;;;6.10;1.77;;;;;;;16.21;26.45;101160.34;5026478;27;98780;-69
2022/04/19 08:50:21;;;;;;;3.58;1.60;;;;;;;16.01;26.76;101165.88;5022406;27;97815;-69
2022/04/19 08:57:29;;;;;;;6.63;1.83;;;;;;;16.39;26.17;101150.53;5024941;27;96860;-69
2022/04/19 08:58:21;;;;;;;2.95;2.20;;;;;;;16.01;26.92;101167.66;5021436;27;97243;-69
2022/04/19 09:00:47;;;;;;;4.28;2.20;;;;;;;15.64;27.26;101160.63;5021991;27;97664;-70
2022/04/19 09:03:14;;;;;;;3.55;1.88;;;;;;;16.33;26.62;101158.84;5020334;27;96950;-70
2022/04/19 09:05:50;;;;;;;4.05;1.75;;;;;;;16.13;26.72;101165.22;5022542;28;98948;-70
2022/04/19 09:08:16;;;;;;;4.32;2.05;;;;;;;16.49;26.43;101172.22;5025537;27;99737;-71
2022/04/19 09:10:44;;;;;;;3.10;1.92;;;;;;;16.48;26.56;101167.81;5022909;27;98886;-71
2022/04/19 09:13:20;;;;;;;3.47;1.77;;;;;;;17.02;25.78;101166.66;5022227;27;99079;-71
2022/04/19 09:15:47;;;;;;;3.83;1.85;;;;;;;16.96;25.38;101175.03;5026273;28;97852;-71
2022/04/19 09:18:15;;;;;;;1.80;1.30;;;;;;;16.56;25.83;101173.63;5025009;27;97477;-69
2022/04/19 09:20:41;;;;;;;4.55;1.70;;;;;;;16.61;25.75;101160.91;5024839;27;96832;-70
2022/04/19 09:23:10;;;;;;;3.60;1.42;;;;;;;17.02;25.43;101169.34;5025377;27;98124;-71
2022/04/19 09:25:37;;;;;;;3.78;1.70;;;;;;;16.03;26.44;101163.97;5028450;27;97754;-70
2022/04/19 09:28:17;;;;;;;4.18;1.40;;;;;;;16.57;26.05;101164.66;5027853;27;99182;-70
2022/04/19 09:30:45;;;;;;;3.17;1.20;;;;;;;16.55;26.21;101161.22;5022097;27;96866;-70
2022/04/19 09:33:15;;;;;;;5.22;1.25;;;;;;;16.64;26.12;101185.66;5022051;28;97478;-69
2022/04/19 09:35:44;;;;;;;3.00;1.20;;;;;;;15.82;27.29;101170.38;5023920;27;98964;-69
2022/04/19 09:38:12;;;;;;;3.88;1.13;;;;;;;16.70;26.10;101168.44;5018876;27;98838;-70
2022/04/19 09:40:41;;;;;;;4.35;1.17;;;;;;;17.21;25.28;101171.84;5018100;27;96849;-71
2022/04/19 09:43:11;;;;;;;6.63;1.23;;;;;;;17.09;25.72;101157.38;5017416;27;98910;-72
2022/04/19 09:45:50;;;;;;;4.70;1.00;;;;;;;15.78;27.19;101171.47;5022059;27;100238;-70
2022/04/19 09:48:17;;;;;;;1.95;1.05;;;;;;;16.34;26.57;101165.91;5023779;27;100536;-70
2022/04/19 09:50:53;;;;;;;5.80;1.20;;;;;;;16.47;26.12;101158.97;5024433;27;97073;-69
2022/04/19 09:53:21;;;;;;;2.93;1.30;;;;;;;16.79;25.83;101157.28;5026111;27;96857;-69
2022/04/19 09:55:48;;;;;;;2.45;1.10;;;;;;;16.02;26.52;101154.22;5020301;27;98936;-69
2022/04/19 09:58:17;;;;;;;4.40;1.73;;;;;;;16.11;25.63;101156.44;5020689;27;99637;-71
2022/04/19 10:00:44;;;;;;;2.70;1.25;;;;;;;15.97;25.62;101153.59;5021021;27;97695;-70
2022/04/19 10:08:53;;;;;;;5.28;1.02;;;;;;;15.86;26.82;101155.97;5021248;27;98587;-71
2022/04/19 10:11:20;;;;;;;3.55;1.00;;;;;;;16.36;26.11;101156.00;5023046;27;96883;-70
2022/04/19 10:13:48;;;;;;;5.20;1.30;;;;;;;16.50;26.09;101148.13;5020283;27;97472;-70
2022/04/19 10:16:16;;;;;;;3.30;1.52;;;;;;;17.48;25.05;101140.88;5021583;27;99132;-70
2022/04/19 10:18:45;;;;;;;5.22;1.15;;;;;;;16.51;25.76;101155.19;5021646;27;99668;-70
2022/04/19 10:21:16;;;;;;;2.38;1.35;;;;;;;17.87;24.32;101156.44;5021074;27;96870;-70
2022/04/19 10:23:43;;;;;;;7.68;1.40;;;;;;;16.77;25.30;101158.28;5023574;27;97268;-69
2022/04/19 10:26:15;;;;;;;3.30;1.00;;;;;;;16.53;26.06;101158.66;5021375;27;98940;-71
2022/04/19 10:28:42;;;;;;;4.22;0.90;;;;;;;17.03;25.63;101147.91;5025277;27;98922;-71
2022/04/19 10:31:11;;;;;;;2.83;1.00;;;;;;;17.18;25.28;101150.66;5022836;28;97657;-69
2022/04/19 10:33:45;;;;;;;2.88;1.45;;;;;;;17.16;25.31;101155.22;5021767;27;97246;-70
2022/04/19 10:36:23;;;;;;;3.75;1.23;;;;;;;17.90;24.54;101151.78;5024332;27;101402;-70
2022/04/19 10:39:22;;;;;;;5.68;1.20;;;;;;;18.56;24.02;101150.47;5019155;27;99153;-70
2022/04/19 10:41:52;;;;;;;2.78;1.08;;;;;;;17.88;23.92;101152.81;5027689;28;96889;-71
2022/04/19 10:44:24;;;;;;;1.88;1.10;;;;;;;17.02;24.85;101156.84;5021335;27;97652;-71
2022/04/19 10:47:13;;;;;;;3.00;1.10;;;;;;;17.10;24.62;101159.97;5020699;27;98961;-70
2022/04/19 10:49:50;;;;;;;2.40;1.17;;;;;;;17.78;24.04;101149.84;5018632;27;100208;-70
2022/04/19 10:52:45;;;;;;;1.98;1.20;;;;;;;17.37;24.75;101149.53;5025118;27;97604;-70
2022/04/19 10:55:18;;;;;;;4.97;1.08;;;;;;;16.92;25.12;101155.66;5021708;27;97946;-70
2022/04/19 11:00:35;;;;;;;2.35;1.02;;;;;;;16.84;24.97;101157.00;5021952;27;97209;-70
2022/04/19 11:03:05;;;;;;;3.17;1.00;;;;;;;17.47;24.40;101152.53;5021003;27;99551;-70
2022/04/19 11:05:36;;;;;;;3.05;1.50;;;;;;;17.72;24.01;101141.31;5020669;27;96944;-69
2022/04/19 11:08:21;;;;;;;1.95;1.20;;;;;;;16.49;25.49;101156.22;5018334;27;98969;-69
2022/04/19 11:10:51;;;;;;;1.73;1.05;;;;;;;15.97;26.23;101152.75;5022359;27;99147;-69
2022/04/19 11:13:19;;;;;;;4.90;1.30;;;;;;;16.00;26.21;101142.81;5022153;27;96846;-70
2022/04/19 11:15:57;;;;;;;2.42;1.30;;;;;;;16.67;25.45;101150.78;5023954;27;96885;-71
2022/04/19 11:18:26;;;;;;;3.78;1.15;;;;;;;16.87;25.41;101157.69;5022230;27;103553;-69
2022/04/19 11:20:53;;;;;;;3.83;1.30;;;;;;;16.51;25.46;101146.34;5024249;28;101103;-72
2022/04/19 11:23:21;;;;;;;3.08;1.00;;;;;;;16.05;26.35;101154.09;5023751;27;96774;-70
2022/04/19 11:25:49;;;;;;;4.43;1.10;;;;;;;16.50;25.82;101164.13;5027543;28;96786;-70
2022/04/19 11:28:27;;;;;;;4.40;1.20;;;;;;;15.79;26.61;101150.09;5023262;27;98956;-71
2022/04/19 11:31:15;;;;;;;4.32;1.20;;;;;;;16.65;25.80;101157.16;5021084;27;101897;-71
2022/04/19 11:33:43;;;;;;;2.67;1.20;;;;;;;16.93;25.71;101148.50;5022905;27;98652;-71
2022/04/19 11:36:11;;;;;;;2.97;1.35;;;;;;;17.30;25.58;101158.84;5024434;27;96945;-71
2022/04/19 11:38:42;;;;;;;6.68;1.58;;;;;;;17.95;24.59;101154.16;5024177;27;98953;-69
2022/04/19 11:46:45;;;;;;;1.85;1.20;;;;;;;17.17;26.07;101154.28;5022809;27;98673;-71
2022/04/19 11:49:25;;;;;;;5.05;1.20;;;;;;;16.95;26.16;101158.13;5025906;27;101072;-70
2022/04/19 11:51:54;;;;;;;1.00;0.90;;;;;;;17.57;25.50;101151.06;5028087;27;97780;-70
2022/04/19 11:54:21;;;;;;;3.40;1.25;;;;;;;18.51;24.60;101153.38;5025289;27;96803;-71
2022/04/19 11:56:50;;;;;;;6.22;1.45;;;;;;;17.73;25.10;101151.91;5021691;27;98836;-71
2022/04/19 11:59:17;;;;;;;10.52;2.05;;;;;;;18.15;24.65;101152.97;5025176;27;97806;-70
2022/04/19 12:01:49;;;;;;;6.88;1.52;;;;;;;17.01;25.68;101170.28;5028093;27;100371;-70
2022/04/19 12:04:17;;;;;;;2.58;1.17;;;;;;;16.75;26.66;101169.03;5023025;27;97227;-70
2022/04/19 12:06:46;;;;;;;1.48;1.30;;;;;;;16.84;26.64;101163.22;5024543;27;98497;-70